Onweer van: 22-05-2018 11:00 tot: 22:59 waarschuwing voor: Onweer niveau: Geel info button
nederlands:
Vanaf de middag verwachten we onweerachtige buien. Plaatselijk is er kans op overvloedige neerslag en hagel.

français:
A partir de la mi-journee, nous prevoyons des aversesorageuses. Par endroits, des precipitations abondantes et de la grele seront possibles. 



waarschuwing voor Onweer Meer informatie blitzortung!


Regen radar Meer informatie rain snow radar


Bezoek onze andere website:

Template documentation
and downloads

And another site

Forum Leuven-template

EUWEATHER.EU

Verwachtingen Meteociel


U vindt ons ook hier:

Het Weer Aktueel

UK Metoffice

European Weather Network

WeatherCloud

Weather Underground

Benelux Weer Netwerk

AWEKAS

WeatherlinkIP

HAMweather, WeatherForYou, PWS Weather

Wetterpage 24

Wetter.com



METAR rapporten vliegvelden

   
EBAW - Antwerp
Gewijzigd: 22-05-2018 05:50
Helder  
Helder  
   Wind: varieert 1.9 km/h
Wind: varieert 1.9 km/h
Temperatuur: 13°C
Dauwpunt: 11°C
Vochtigheid: 88%
Barometer: 1011 hPa
Zicht: meer dan 10 km
Bewolking: Helder
EBAW 220350Z AUTO VRB01KT CAVOK 13/11 Q1011
EBLG - Liège
Gewijzigd: 22-05-2018 05:50
Gedeeltelijk bewolkt  
Gedeeltelijk bewolkt  
   Wind: ZZO 11.1 km/h
Wind: ZZO 11.1 km/h
Temperatuur: 13°C
Dauwpunt: 12°C
Vochtigheid: 94%
Barometer: 1011 hPa
Bewolking: Gedeeltelijk bewolkt
Zicht: 8 km
Bewolking: Gedeeltelijk bewolkt
EBLG 220350Z 15006KT 130V200 8000 NSC 13/12 Q1011 NOSIG
EBCV - Mons/Bergen
Gewijzigd: 22-05-2018 05:55
Nevel, Helder  
Nevel, Helder  
   Wind: ZZW 5.6 km/h
Wind: ZZW 5.6 km/h
Temperatuur: 10°C
Voelt als: 9°C
Dauwpunt: 10°C
Vochtigheid: 100%
Barometer: 1012 hPa
Bewolking: Helder
Zicht: 1 km
Bewolking: Helder
EBCV 220355Z AUTO 20003KT 1100 BR NCD 10/10 Q1012 AMB
EHBK - Maastricht
Gewijzigd: 22-05-2018 05:55
Gedeeltelijk bewolkt  
Gedeeltelijk bewolkt  
   Wind: Zuiden 7.4 km/h
Wind: Zuiden 7.4 km/h
Temperatuur: 13°C
Dauwpunt: 12°C
Vochtigheid: 94%
Barometer: 1011 hPa
Bewolking: Gedeeltelijk bewolkt
Zicht: meer dan 10 km
Bewolking: Gedeeltelijk bewolkt
EHBK 220355Z AUTO 17004KT 9999 NSC 13/12 Q1011 TEMPO 6000
ELLX - Luxemburg
Gewijzigd: 22-05-2018 05:50
Helder  
Helder  
   Wind: NNO 7.4 km/h
Wind: NNO 7.4 km/h
Temperatuur: 13°C
Dauwpunt: 11°C
Vochtigheid: 88%
Barometer: 1012 hPa
Zicht: meer dan 10 km
Bewolking: Helder
ELLX 220350Z 03004KT CAVOK 13/11 Q1012 NOSIG
EBOS - Oostende
Gewijzigd: 22-05-2018 05:50
Licht bewolkt  
Licht bewolkt  
   Wind: NNO 7.4 km/h
Wind: NNO 7.4 km/h
Temperatuur: 12°C
Dauwpunt: 10°C
Vochtigheid: 88%
Barometer: 1012 hPa
Bewolking: Licht bewolkt
Zicht: meer dan 10 km
Bewolking: Licht bewolkt 3500 ft
EBOS 220350Z 02004KT 9999 FEW035 12/10 Q1012 NOSIG

Script ontwikkeld door  Saratoga-weather.org Aangepast voor de template door  Weerstation Leuven

Apparatuur in gebruik:

Weerstation
Davis VP2

Weerprogramma
Meteobridge

Weercomputer
Asus WL -330N3G

Webleverancier
Onecom

Davis VP2

Meteobridge

Asus WL -330N3G

Onecom